DXNG

Niamtougou International

Airport
ICAO code
DXNG
Summary
ICAO Region
AFI
ICAO Territory
Location

Niamtougou,

Coordinates
9° 46' 11" N , 1° 5' 34" E
Metar
Observation
DXNG 120300Z 28002KT 9999 SCT006 23/22 Q1012
Station
Niamtougou
Date/Time
2022-08-12 03:00:00
Wind direction
280°
Wind speed
02 kts
Lowest cloud amount
scattered clouds
Temperature
23°C
Dew point
22°C
Humidity
94%
QNH
1012 hPa
Weather condition
n/a

Description

Niamtougou International Airport is an airport serving Niamtougou in Togo.

Climatology

Runways

Designator Length Width Surface Rops
3/21 2500 45 CON No/No

Airport map

Aerial View

SKYbrary Partners:

Safety knowledge contributed by: